sensor_id;sensor_type;location;lat;lon;timestamp;temperature;humidity
52859;DHT22;38721;53.098;6.596;2022-09-24T00:00:56;13.80;99.90
52859;DHT22;38721;53.098;6.596;2022-09-24T00:03:24;13.70;99.90
52859;DHT22;38721;53.098;6.596;2022-09-24T00:05:51;13.80;99.90
52859;DHT22;38721;53.098;6.596;2022-09-24T00:08:18;13.70;99.90
52859;DHT22;38721;53.098;6.596;2022-09-24T00:10:46;13.70;99.90
52859;DHT22;38721;53.098;6.596;2022-09-24T00:13:15;13.90;99.90
52859;DHT22;38721;53.098;6.596;2022-09-24T00:15:47;13.80;99.90
52859;DHT22;38721;53.098;6.596;2022-09-24T00:18:14;13.70;99.90
52859;DHT22;38721;53.098;6.596;2022-09-24T00:20:40;13.90;99.90
52859;DHT22;38721;53.098;6.596;2022-09-24T00:23:07;13.90;99.90
52859;DHT22;38721;53.098;6.596;2022-09-24T00:25:38;14.00;99.90
52859;DHT22;38721;53.098;6.596;2022-09-24T00:28:25;13.80;99.90
52859;DHT22;38721;53.098;6.596;2022-09-24T00:30:51;13.80;99.90
52859;DHT22;38721;53.098;6.596;2022-09-24T00:33:17;13.80;99.90
52859;DHT22;38721;53.098;6.596;2022-09-24T00:35:43;14.00;99.90
52859;DHT22;38721;53.098;6.596;2022-09-24T00:38:09;13.80;99.90
52859;DHT22;38721;53.098;6.596;2022-09-24T00:40:36;14.00;99.90
52859;DHT22;38721;53.098;6.596;2022-09-24T00:43:23;13.80;99.90
52859;DHT22;38721;53.098;6.596;2022-09-24T00:46:15;13.80;99.90
52859;DHT22;38721;53.098;6.596;2022-09-24T00:48:43;14.10;99.90
52859;DHT22;38721;53.098;6.596;2022-09-24T00:51:12;14.10;99.90
52859;DHT22;38721;53.098;6.596;2022-09-24T00:53:40;14.00;99.90
52859;DHT22;38721;53.098;6.596;2022-09-24T00:56:11;14.00;99.90
52859;DHT22;38721;53.098;6.596;2022-09-24T00:58:47;14.00;99.90
52859;DHT22;38721;53.098;6.596;2022-09-24T01:01:15;14.10;99.90
52859;DHT22;38721;53.098;6.596;2022-09-24T01:03:41;14.00;99.90
52859;DHT22;38721;53.098;6.596;2022-09-24T01:06:07;14.10;99.90
52859;DHT22;38721;53.098;6.596;2022-09-24T01:08:34;13.90;99.90
52859;DHT22;38721;53.098;6.596;2022-09-24T01:16:25;13.90;99.90
52859;DHT22;38721;53.098;6.596;2022-09-24T01:22:02;14.00;99.90
52859;DHT22;38721;53.098;6.596;2022-09-24T01:30:17;14.10;99.90
52859;DHT22;38721;53.098;6.596;2022-09-24T01:35:37;14.10;99.90
52859;DHT22;38721;53.098;6.596;2022-09-24T01:38:08;14.00;99.90
52859;DHT22;38721;53.098;6.596;2022-09-24T01:40:36;14.20;99.90
52859;DHT22;38721;53.098;6.596;2022-09-24T01:43:05;14.10;99.90
52859;DHT22;38721;53.098;6.596;2022-09-24T01:45:32;14.00;99.90
52859;DHT22;38721;53.098;6.596;2022-09-24T01:47:59;14.20;99.90
52859;DHT22;38721;53.098;6.596;2022-09-24T01:50:29;14.00;99.90
52859;DHT22;38721;53.098;6.596;2022-09-24T01:53:10;14.00;99.90
52859;DHT22;38721;53.098;6.596;2022-09-24T01:55:40;14.10;99.90
52859;DHT22;38721;53.098;6.596;2022-09-24T01:58:10;14.00;99.90
52859;DHT22;38721;53.098;6.596;2022-09-24T02:00:43;14.20;99.90
52859;DHT22;38721;53.098;6.596;2022-09-24T02:03:24;14.00;99.90
52859;DHT22;38721;53.098;6.596;2022-09-24T02:06:05;14.20;99.90
52859;DHT22;38721;53.098;6.596;2022-09-24T02:08:38;14.00;99.90
52859;DHT22;38721;53.098;6.596;2022-09-24T02:11:10;14.10;99.90
52859;DHT22;38721;53.098;6.596;2022-09-24T02:13:43;14.10;99.90
52859;DHT22;38721;53.098;6.596;2022-09-24T02:16:12;14.10;99.90
52859;DHT22;38721;53.098;6.596;2022-09-24T02:18:43;14.00;99.90
52859;DHT22;38721;53.098;6.596;2022-09-24T02:21:14;14.10;99.90
52859;DHT22;38721;53.098;6.596;2022-09-24T02:23:46;14.00;99.90
52859;DHT22;38721;53.098;6.596;2022-09-24T02:26:13;14.10;99.90
52859;DHT22;38721;53.098;6.596;2022-09-24T02:28:39;14.00;99.90
52859;DHT22;38721;53.098;6.596;2022-09-24T02:31:16;14.10;99.90
52859;DHT22;38721;53.098;6.596;2022-09-24T02:33:45;14.20;99.90
52859;DHT22;38721;53.098;6.596;2022-09-24T02:36:30;14.00;99.90
52859;DHT22;38721;53.098;6.596;2022-09-24T02:38:57;14.10;99.90
52859;DHT22;38721;53.098;6.596;2022-09-24T02:41:28;14.20;99.90
52859;DHT22;38721;53.098;6.596;2022-09-24T02:43:54;14.20;99.90
52859;DHT22;38721;53.098;6.596;2022-09-24T02:46:20;13.90;99.90
52859;DHT22;38721;53.098;6.596;2022-09-24T02:48:46;14.10;99.90
52859;DHT22;38721;53.098;6.596;2022-09-24T02:51:11;14.10;99.90
52859;DHT22;38721;53.098;6.596;2022-09-24T02:53:37;14.20;99.90
52859;DHT22;38721;53.098;6.596;2022-09-24T02:56:03;14.20;99.90
52859;DHT22;38721;53.098;6.596;2022-09-24T02:58:30;14.20;99.90
52859;DHT22;38721;53.098;6.596;2022-09-24T03:00:56;14.20;99.90
52859;DHT22;38721;53.098;6.596;2022-09-24T03:03:23;14.00;99.90
52859;DHT22;38721;53.098;6.596;2022-09-24T03:05:49;14.10;99.90
52859;DHT22;38721;53.098;6.596;2022-09-24T03:08:17;14.20;99.90
52859;DHT22;38721;53.098;6.596;2022-09-24T03:10:43;14.20;99.90
52859;DHT22;38721;53.098;6.596;2022-09-24T03:13:11;14.00;99.90
52859;DHT22;38721;53.098;6.596;2022-09-24T03:15:37;14.20;99.90
52859;DHT22;38721;53.098;6.596;2022-09-24T03:18:03;14.20;99.90
52859;DHT22;38721;53.098;6.596;2022-09-24T03:20:29;14.30;99.90
52859;DHT22;38721;53.098;6.596;2022-09-24T03:22:55;14.00;99.90
52859;DHT22;38721;53.098;6.596;2022-09-24T03:25:20;14.30;99.90
52859;DHT22;38721;53.098;6.596;2022-09-24T03:27:46;14.20;99.90
52859;DHT22;38721;53.098;6.596;2022-09-24T03:30:12;14.20;99.90
52859;DHT22;38721;53.098;6.596;2022-09-24T03:32:57;14.00;99.90
52859;DHT22;38721;53.098;6.596;2022-09-24T03:35:24;14.10;99.90
52859;DHT22;38721;53.098;6.596;2022-09-24T03:37:50;14.10;99.90
52859;DHT22;38721;53.098;6.596;2022-09-24T03:40:16;14.10;99.90
52859;DHT22;38721;53.098;6.596;2022-09-24T03:42:42;14.10;99.90
52859;DHT22;38721;53.098;6.596;2022-09-24T03:45:08;14.10;99.90
52859;DHT22;38721;53.098;6.596;2022-09-24T03:47:34;14.30;99.90
52859;DHT22;38721;53.098;6.596;2022-09-24T03:50:00;14.30;99.90
52859;DHT22;38721;53.098;6.596;2022-09-24T03:52:27;14.20;99.90
52859;DHT22;38721;53.098;6.596;2022-09-24T03:54:53;14.10;99.90
52859;DHT22;38721;53.098;6.596;2022-09-24T03:57:19;14.00;99.90
52859;DHT22;38721;53.098;6.596;2022-09-24T03:59:44;14.30;99.90
52859;DHT22;38721;53.098;6.596;2022-09-24T04:02:12;14.00;99.90
52859;DHT22;38721;53.098;6.596;2022-09-24T04:04:40;14.00;99.90
52859;DHT22;38721;53.098;6.596;2022-09-24T04:07:06;14.00;99.90
52859;DHT22;38721;53.098;6.596;2022-09-24T04:09:32;14.00;99.90
52859;DHT22;38721;53.098;6.596;2022-09-24T04:11:57;14.20;99.90
52859;DHT22;38721;53.098;6.596;2022-09-24T04:14:23;14.20;99.90
52859;DHT22;38721;53.098;6.596;2022-09-24T04:16:49;13.90;99.90
52859;DHT22;38721;53.098;6.596;2022-09-24T04:19:14;14.20;99.90
52859;DHT22;38721;53.098;6.596;2022-09-24T04:21:41;14.10;99.90
52859;DHT22;38721;53.098;6.596;2022-09-24T04:24:07;14.00;99.90
52859;DHT22;38721;53.098;6.596;2022-09-24T04:26:33;14.00;99.90
52859;DHT22;38721;53.098;6.596;2022-09-24T04:28:59;14.20;99.90
52859;DHT22;38721;53.098;6.596;2022-09-24T04:31:26;14.00;99.90
52859;DHT22;38721;53.098;6.596;2022-09-24T04:33:55;14.20;99.90
52859;DHT22;38721;53.098;6.596;2022-09-24T04:36:24;14.00;99.90
52859;DHT22;38721;53.098;6.596;2022-09-24T04:38:52;14.20;99.90
52859;DHT22;38721;53.098;6.596;2022-09-24T04:41:17;14.00;99.90
52859;DHT22;38721;53.098;6.596;2022-09-24T04:43:43;14.00;99.90
52859;DHT22;38721;53.098;6.596;2022-09-24T04:46:12;14.20;99.90
52859;DHT22;38721;53.098;6.596;2022-09-24T04:48:41;14.20;99.90
52859;DHT22;38721;53.098;6.596;2022-09-24T04:51:09;14.20;99.90
52859;DHT22;38721;53.098;6.596;2022-09-24T04:53:36;14.20;99.90
52859;DHT22;38721;53.098;6.596;2022-09-24T04:56:05;14.20;99.90
52859;DHT22;38721;53.098;6.596;2022-09-24T04:58:37;14.20;99.90
52859;DHT22;38721;53.098;6.596;2022-09-24T05:01:02;14.10;99.90
52859;DHT22;38721;53.098;6.596;2022-09-24T05:03:28;14.30;99.90
52859;DHT22;38721;53.098;6.596;2022-09-24T05:05:54;14.10;99.90
52859;DHT22;38721;53.098;6.596;2022-09-24T05:08:23;14.10;99.90
52859;DHT22;38721;53.098;6.596;2022-09-24T05:10:49;14.30;99.90
52859;DHT22;38721;53.098;6.596;2022-09-24T05:13:15;14.10;99.90
52859;DHT22;38721;53.098;6.596;2022-09-24T05:15:41;14.40;99.90
52859;DHT22;38721;53.098;6.596;2022-09-24T05:18:06;14.10;99.90
52859;DHT22;38721;53.098;6.596;2022-09-24T05:20:32;14.40;99.90
52859;DHT22;38721;53.098;6.596;2022-09-24T05:22:57;14.40;99.90
52859;DHT22;38721;53.098;6.596;2022-09-24T05:25:23;14.40;99.90
52859;DHT22;38721;53.098;6.596;2022-09-24T05:27:53;14.30;99.90
52859;DHT22;38721;53.098;6.596;2022-09-24T05:30:20;14.30;99.90
52859;DHT22;38721;53.098;6.596;2022-09-24T05:32:47;14.40;99.90
52859;DHT22;38721;53.098;6.596;2022-09-24T05:35:17;14.20;99.90
52859;DHT22;38721;53.098;6.596;2022-09-24T05:37:43;14.40;99.90
52859;DHT22;38721;53.098;6.596;2022-09-24T05:40:10;14.20;99.90
52859;DHT22;38721;53.098;6.596;2022-09-24T05:43:02;14.20;99.90
52859;DHT22;38721;53.098;6.596;2022-09-24T05:45:28;14.40;99.90
52859;DHT22;38721;53.098;6.596;2022-09-24T05:47:54;14.20;99.90
52859;DHT22;38721;53.098;6.596;2022-09-24T05:50:20;14.30;99.90
52859;DHT22;38721;53.098;6.596;2022-09-24T05:52:45;14.40;99.90
52859;DHT22;38721;53.098;6.596;2022-09-24T05:55:11;14.40;99.90
52859;DHT22;38721;53.098;6.596;2022-09-24T05:57:37;14.40;99.90
52859;DHT22;38721;53.098;6.596;2022-09-24T06:00:04;14.20;99.90
52859;DHT22;38721;53.098;6.596;2022-09-24T06:02:31;14.20;99.90
52859;DHT22;38721;53.098;6.596;2022-09-24T06:04:56;14.20;99.90
52859;DHT22;38721;53.098;6.596;2022-09-24T06:07:22;14.30;99.90
52859;DHT22;38721;53.098;6.596;2022-09-24T06:09:48;14.50;99.90
52859;DHT22;38721;53.098;6.596;2022-09-24T06:12:14;14.30;99.90
52859;DHT22;38721;53.098;6.596;2022-09-24T06:14:40;14.40;99.90
52859;DHT22;38721;53.098;6.596;2022-09-24T06:17:07;14.40;99.90
52859;DHT22;38721;53.098;6.596;2022-09-24T06:19:36;14.30;99.90
52859;DHT22;38721;53.098;6.596;2022-09-24T06:22:02;14.30;99.90
52859;DHT22;38721;53.098;6.596;2022-09-24T06:24:28;14.40;99.90
52859;DHT22;38721;53.098;6.596;2022-09-24T06:26:54;14.30;99.90
52859;DHT22;38721;53.098;6.596;2022-09-24T06:29:19;14.40;99.90
52859;DHT22;38721;53.098;6.596;2022-09-24T06:31:46;14.50;99.90
52859;DHT22;38721;53.098;6.596;2022-09-24T06:34:12;14.40;99.90
52859;DHT22;38721;53.098;6.596;2022-09-24T06:36:40;14.20;99.90
52859;DHT22;38721;53.098;6.596;2022-09-24T06:39:06;14.40;99.90
52859;DHT22;38721;53.098;6.596;2022-09-24T06:41:32;14.40;99.90
52859;DHT22;38721;53.098;6.596;2022-09-24T06:43:58;14.30;99.90
52859;DHT22;38721;53.098;6.596;2022-09-24T06:46:24;14.40;99.90
52859;DHT22;38721;53.098;6.596;2022-09-24T06:48:50;14.30;99.90
52859;DHT22;38721;53.098;6.596;2022-09-24T06:51:18;14.10;99.90
52859;DHT22;38721;53.098;6.596;2022-09-24T06:53:44;14.20;99.90
52859;DHT22;38721;53.098;6.596;2022-09-24T06:56:09;14.40;99.90
52859;DHT22;38721;53.098;6.596;2022-09-24T06:58:35;14.20;99.90
52859;DHT22;38721;53.098;6.596;2022-09-24T07:01:02;14.20;99.90
52859;DHT22;38721;53.098;6.596;2022-09-24T07:03:30;14.40;99.90
52859;DHT22;38721;53.098;6.596;2022-09-24T07:05:59;14.30;99.90
52859;DHT22;38721;53.098;6.596;2022-09-24T07:08:25;14.50;99.90
52859;DHT22;38721;53.098;6.596;2022-09-24T07:10:53;14.50;99.90
52859;DHT22;38721;53.098;6.596;2022-09-24T07:13:19;14.60;99.90
52859;DHT22;38721;53.098;6.596;2022-09-24T07:15:47;14.60;99.90
52859;DHT22;38721;53.098;6.596;2022-09-24T07:18:13;14.60;99.90
52859;DHT22;38721;53.098;6.596;2022-09-24T07:20:42;14.30;99.90
52859;DHT22;38721;53.098;6.596;2022-09-24T07:23:08;14.60;99.90
52859;DHT22;38721;53.098;6.596;2022-09-24T07:25:35;14.40;99.90
52859;DHT22;38721;53.098;6.596;2022-09-24T07:28:12;14.40;99.90
52859;DHT22;38721;53.098;6.596;2022-09-24T07:30:38;14.40;99.90
52859;DHT22;38721;53.098;6.596;2022-09-24T07:33:05;14.60;99.90
52859;DHT22;38721;53.098;6.596;2022-09-24T07:35:37;14.60;99.90
52859;DHT22;38721;53.098;6.596;2022-09-24T07:38:06;14.50;99.90
52859;DHT22;38721;53.098;6.596;2022-09-24T07:40:32;14.60;99.90
52859;DHT22;38721;53.098;6.596;2022-09-24T07:42:58;14.60;99.90
52859;DHT22;38721;53.098;6.596;2022-09-24T07:45:26;14.50;99.90
52859;DHT22;38721;53.098;6.596;2022-09-24T07:47:57;14.50;99.90
52859;DHT22;38721;53.098;6.596;2022-09-24T07:50:24;14.50;99.90
52859;DHT22;38721;53.098;6.596;2022-09-24T07:52:50;14.50;99.90
52859;DHT22;38721;53.098;6.596;2022-09-24T07:55:16;14.70;99.90
52859;DHT22;38721;53.098;6.596;2022-09-24T07:57:51;14.70;99.90
52859;DHT22;38721;53.098;6.596;2022-09-24T08:00:19;14.50;99.90
52859;DHT22;38721;53.098;6.596;2022-09-24T08:02:46;14.40;99.90
52859;DHT22;38721;53.098;6.596;2022-09-24T08:05:13;14.30;99.90
52859;DHT22;38721;53.098;6.596;2022-09-24T08:07:50;14.30;99.90
52859;DHT22;38721;53.098;6.596;2022-09-24T08:10:17;14.50;99.90
52859;DHT22;38721;53.098;6.596;2022-09-24T08:12:43;14.50;99.90
52859;DHT22;38721;53.098;6.596;2022-09-24T08:15:09;14.40;99.90
52859;DHT22;38721;53.098;6.596;2022-09-24T08:17:34;14.50;99.90
52859;DHT22;38721;53.098;6.596;2022-09-24T08:20:03;14.40;99.90
52859;DHT22;38721;53.098;6.596;2022-09-24T08:22:29;14.60;99.90
52859;DHT22;38721;53.098;6.596;2022-09-24T08:25:01;14.40;99.90
52859;DHT22;38721;53.098;6.596;2022-09-24T08:27:28;14.60;99.90
52859;DHT22;38721;53.098;6.596;2022-09-24T08:29:54;14.70;99.90
52859;DHT22;38721;53.098;6.596;2022-09-24T08:32:22;14.70;99.90
52859;DHT22;38721;53.098;6.596;2022-09-24T08:34:48;14.70;99.90
52859;DHT22;38721;53.098;6.596;2022-09-24T08:37:14;14.60;99.90
52859;DHT22;38721;53.098;6.596;2022-09-24T08:39:40;14.80;99.90
52859;DHT22;38721;53.098;6.596;2022-09-24T08:42:14;14.90;99.90
52859;DHT22;38721;53.098;6.596;2022-09-24T08:44:47;14.90;99.90
52859;DHT22;38721;53.098;6.596;2022-09-24T08:47:41;14.60;99.90
52859;DHT22;38721;53.098;6.596;2022-09-24T08:50:29;14.70;99.90
52859;DHT22;38721;53.098;6.596;2022-09-24T09:01:43;14.80;99.90
52859;DHT22;38721;53.098;6.596;2022-09-24T09:04:32;14.70;99.90
52859;DHT22;38721;53.098;6.596;2022-09-24T09:07:25;14.80;99.90
52859;DHT22;38721;53.098;6.596;2022-09-24T09:10:02;14.70;99.90
52859;DHT22;38721;53.098;6.596;2022-09-24T09:13:31;14.70;99.90
52859;DHT22;38721;53.098;6.596;2022-09-24T09:15:27;14.70;99.90
52859;DHT22;38721;53.098;6.596;2022-09-24T09:20:33;14.80;99.90
52859;DHT22;38721;53.098;6.596;2022-09-24T09:23:12;14.90;99.90
52859;DHT22;38721;53.098;6.596;2022-09-24T09:25:54;14.70;99.90
52859;DHT22;38721;53.098;6.596;2022-09-24T09:28:25;14.80;99.90
52859;DHT22;38721;53.098;6.596;2022-09-24T09:33:59;14.80;99.90
52859;DHT22;38721;53.098;6.596;2022-09-24T09:45:18;15.20;99.90
52859;DHT22;38721;53.098;6.596;2022-09-24T09:47:58;15.10;99.90
52859;DHT22;38721;53.098;6.596;2022-09-24T09:50:44;15.20;99.90
52859;DHT22;38721;53.098;6.596;2022-09-24T09:53:37;15.00;99.90
52859;DHT22;38721;53.098;6.596;2022-09-24T09:56:10;14.80;99.90
52859;DHT22;38721;53.098;6.596;2022-09-24T09:58:43;14.80;99.90
52859;DHT22;38721;53.098;6.596;2022-09-24T10:01:13;14.80;99.90
52859;DHT22;38721;53.098;6.596;2022-09-24T10:06:26;14.80;99.90
52859;DHT22;38721;53.098;6.596;2022-09-24T10:08:52;14.70;99.90
52859;DHT22;38721;53.098;6.596;2022-09-24T10:11:18;14.80;99.90
52859;DHT22;38721;53.098;6.596;2022-09-24T10:13:44;14.90;99.90
52859;DHT22;38721;53.098;6.596;2022-09-24T10:16:13;15.10;99.90
52859;DHT22;38721;53.098;6.596;2022-09-24T10:18:49;15.00;99.90
52859;DHT22;38721;53.098;6.596;2022-09-24T10:21:45;14.70;99.90
52859;DHT22;38721;53.098;6.596;2022-09-24T10:24:31;15.20;99.90
52859;DHT22;38721;53.098;6.596;2022-09-24T10:27:12;14.90;99.90
52859;DHT22;38721;53.098;6.596;2022-09-24T10:29:39;14.90;99.90
52859;DHT22;38721;53.098;6.596;2022-09-24T10:32:27;15.00;99.90
52859;DHT22;38721;53.098;6.596;2022-09-24T10:35:13;14.80;99.90
52859;DHT22;38721;53.098;6.596;2022-09-24T10:37:50;15.00;99.90
52859;DHT22;38721;53.098;6.596;2022-09-24T10:40:20;14.90;99.90
52859;DHT22;38721;53.098;6.596;2022-09-24T10:43:03;15.00;99.90
52859;DHT22;38721;53.098;6.596;2022-09-24T10:46:02;14.80;99.90
52859;DHT22;38721;53.098;6.596;2022-09-24T10:48:53;15.20;99.90
52859;DHT22;38721;53.098;6.596;2022-09-24T10:52:02;14.90;99.90
52859;DHT22;38721;53.098;6.596;2022-09-24T10:57:15;14.90;99.90
52859;DHT22;38721;53.098;6.596;2022-09-24T11:04:58;15.10;99.90
52859;DHT22;38721;53.098;6.596;2022-09-24T11:17:33;15.10;99.90
52859;DHT22;38721;53.098;6.596;2022-09-24T11:20:21;14.90;99.90
52859;DHT22;38721;53.098;6.596;2022-09-24T11:29:01;15.10;99.90
52859;DHT22;38721;53.098;6.596;2022-09-24T11:45:37;14.80;99.90
52859;DHT22;38721;53.098;6.596;2022-09-24T11:53:59;14.80;99.90
52859;DHT22;38721;53.098;6.596;2022-09-24T11:56:50;14.80;99.90
52859;DHT22;38721;53.098;6.596;2022-09-24T11:59:40;14.80;99.90
52859;DHT22;38721;53.098;6.596;2022-09-24T12:02:29;14.80;99.90
52859;DHT22;38721;53.098;6.596;2022-09-24T12:05:12;14.70;99.90
52859;DHT22;38721;53.098;6.596;2022-09-24T12:08:28;14.80;99.90
52859;DHT22;38721;53.098;6.596;2022-09-24T12:10:37;14.70;99.90
52859;DHT22;38721;53.098;6.596;2022-09-24T12:16:04;14.50;99.90
52859;DHT22;38721;53.098;6.596;2022-09-24T12:18:40;14.40;99.90
52859;DHT22;38721;53.098;6.596;2022-09-24T12:21:17;14.40;99.90
52859;DHT22;38721;53.098;6.596;2022-09-24T12:23:46;14.50;99.90
52859;DHT22;38721;53.098;6.596;2022-09-24T12:26:15;14.30;99.90
52859;DHT22;38721;53.098;6.596;2022-09-24T12:28:50;14.60;99.90
52859;DHT22;38721;53.098;6.596;2022-09-24T12:31:51;14.30;99.90
52859;DHT22;38721;53.098;6.596;2022-09-24T12:37:14;14.30;99.90
52859;DHT22;38721;53.098;6.596;2022-09-24T12:40:24;14.50;99.90
52859;DHT22;38721;53.098;6.596;2022-09-24T12:42:56;14.60;99.90
52859;DHT22;38721;53.098;6.596;2022-09-24T12:45:23;14.50;99.90
52859;DHT22;38721;53.098;6.596;2022-09-24T12:48:03;14.60;99.90
52859;DHT22;38721;53.098;6.596;2022-09-24T12:50:31;14.70;99.90
52859;DHT22;38721;53.098;6.596;2022-09-24T12:52:57;14.50;99.90
52859;DHT22;38721;53.098;6.596;2022-09-24T12:55:24;14.50;99.90
52859;DHT22;38721;53.098;6.596;2022-09-24T12:58:05;14.40;99.90
52859;DHT22;38721;53.098;6.596;2022-09-24T13:02:57;14.60;99.90
52859;DHT22;38721;53.098;6.596;2022-09-24T13:10:34;14.50;99.90
52859;DHT22;38721;53.098;6.596;2022-09-24T13:13:02;14.60;99.90
52859;DHT22;38721;53.098;6.596;2022-09-24T13:15:36;14.40;99.90
52859;DHT22;38721;53.098;6.596;2022-09-24T13:20:37;14.50;99.90
52859;DHT22;38721;53.098;6.596;2022-09-24T13:28:52;14.20;99.90
52859;DHT22;38721;53.098;6.596;2022-09-24T13:36:41;14.20;99.90
52859;DHT22;38721;53.098;6.596;2022-09-24T13:42:07;14.20;99.90
52859;DHT22;38721;53.098;6.596;2022-09-24T13:44:44;14.20;99.90
52859;DHT22;38721;53.098;6.596;2022-09-24T13:50:38;14.10;99.90
52859;DHT22;38721;53.098;6.596;2022-09-24T13:53:20;14.20;99.90
52859;DHT22;38721;53.098;6.596;2022-09-24T13:55:56;14.30;99.90
52859;DHT22;38721;53.098;6.596;2022-09-24T14:00:53;14.20;99.90
52859;DHT22;38721;53.098;6.596;2022-09-24T14:03:29;14.10;99.90
52859;DHT22;38721;53.098;6.596;2022-09-24T14:05:58;14.30;99.90
52859;DHT22;38721;53.098;6.596;2022-09-24T14:08:24;14.10;99.90
52859;DHT22;38721;53.098;6.596;2022-09-24T14:11:03;14.30;99.90
52859;DHT22;38721;53.098;6.596;2022-09-24T14:13:34;14.20;99.90
52859;DHT22;38721;53.098;6.596;2022-09-24T14:16:08;14.40;99.90
52859;DHT22;38721;53.098;6.596;2022-09-24T14:18:37;14.10;99.90
52859;DHT22;38721;53.098;6.596;2022-09-24T14:21:10;14.30;99.90
52859;DHT22;38721;53.098;6.596;2022-09-24T14:26:54;14.30;99.90
52859;DHT22;38721;53.098;6.596;2022-09-24T14:29:27;14.30;99.90
52859;DHT22;38721;53.098;6.596;2022-09-24T14:32:04;13.90;99.90
52859;DHT22;38721;53.098;6.596;2022-09-24T14:34:34;13.90;99.90
52859;DHT22;38721;53.098;6.596;2022-09-24T14:37:23;13.60;99.90
52859;DHT22;38721;53.098;6.596;2022-09-24T14:45:20;13.70;99.90
52859;DHT22;38721;53.098;6.596;2022-09-24T14:47:59;13.60;99.90
52859;DHT22;38721;53.098;6.596;2022-09-24T14:50:39;13.60;99.90
52859;DHT22;38721;53.098;6.596;2022-09-24T14:53:18;13.60;99.90
52859;DHT22;38721;53.098;6.596;2022-09-24T14:55:45;13.90;99.90
52859;DHT22;38721;53.098;6.596;2022-09-24T14:58:44;13.70;99.90
52859;DHT22;38721;53.098;6.596;2022-09-24T15:01:15;13.80;99.90
52859;DHT22;38721;53.098;6.596;2022-09-24T15:03:46;13.80;99.90
52859;DHT22;38721;53.098;6.596;2022-09-24T15:06:24;13.70;99.90
52859;DHT22;38721;53.098;6.596;2022-09-24T15:09:05;13.60;99.90
52859;DHT22;38721;53.098;6.596;2022-09-24T15:11:37;13.60;99.90
52859;DHT22;38721;53.098;6.596;2022-09-24T15:16:43;13.50;99.90
52859;DHT22;38721;53.098;6.596;2022-09-24T15:19:15;13.30;99.90
52859;DHT22;38721;53.098;6.596;2022-09-24T15:21:47;13.40;99.90
52859;DHT22;38721;53.098;6.596;2022-09-24T15:24:13;13.40;99.90
52859;DHT22;38721;53.098;6.596;2022-09-24T15:26:43;13.40;99.90
52859;DHT22;38721;53.098;6.596;2022-09-24T15:29:17;13.40;99.90
52859;DHT22;38721;53.098;6.596;2022-09-24T15:31:45;13.40;99.90
52859;DHT22;38721;53.098;6.596;2022-09-24T15:34:11;13.60;99.90
52859;DHT22;38721;53.098;6.596;2022-09-24T15:36:37;13.60;99.90
52859;DHT22;38721;53.098;6.596;2022-09-24T15:39:03;13.70;99.90
52859;DHT22;38721;53.098;6.596;2022-09-24T15:41:29;13.70;99.90
52859;DHT22;38721;53.098;6.596;2022-09-24T15:43:56;13.70;99.90
52859;DHT22;38721;53.098;6.596;2022-09-24T15:46:23;13.50;99.90
52859;DHT22;38721;53.098;6.596;2022-09-24T15:48:49;13.70;99.90
52859;DHT22;38721;53.098;6.596;2022-09-24T15:51:16;13.70;99.90
52859;DHT22;38721;53.098;6.596;2022-09-24T15:53:47;13.70;99.90
52859;DHT22;38721;53.098;6.596;2022-09-24T15:56:13;13.60;99.90
52859;DHT22;38721;53.098;6.596;2022-09-24T15:58:40;13.50;99.90
52859;DHT22;38721;53.098;6.596;2022-09-24T16:01:10;13.80;99.90
52859;DHT22;38721;53.098;6.596;2022-09-24T16:03:37;13.70;99.90
52859;DHT22;38721;53.098;6.596;2022-09-24T16:06:04;13.70;99.90
52859;DHT22;38721;53.098;6.596;2022-09-24T16:08:30;13.60;99.90
52859;DHT22;38721;53.098;6.596;2022-09-24T16:10:56;13.60;99.90
52859;DHT22;38721;53.098;6.596;2022-09-24T16:13:21;13.60;99.90
52859;DHT22;38721;53.098;6.596;2022-09-24T16:15:47;13.90;99.90
52859;DHT22;38721;53.098;6.596;2022-09-24T16:18:15;13.80;99.90
52859;DHT22;38721;53.098;6.596;2022-09-24T16:20:45;13.90;99.90
52859;DHT22;38721;53.098;6.596;2022-09-24T16:23:15;13.80;99.90
52859;DHT22;38721;53.098;6.596;2022-09-24T16:25:56;14.00;99.90
52859;DHT22;38721;53.098;6.596;2022-09-24T16:28:23;13.90;99.90
52859;DHT22;38721;53.098;6.596;2022-09-24T16:30:52;13.80;99.90
52859;DHT22;38721;53.098;6.596;2022-09-24T16:33:19;13.90;99.90
52859;DHT22;38721;53.098;6.596;2022-09-24T16:35:45;13.90;99.90
52859;DHT22;38721;53.098;6.596;2022-09-24T16:38:11;13.90;99.90
52859;DHT22;38721;53.098;6.596;2022-09-24T16:40:39;13.90;99.90
52859;DHT22;38721;53.098;6.596;2022-09-24T16:43:05;13.80;99.90
52859;DHT22;38721;53.098;6.596;2022-09-24T16:45:32;14.00;99.90
52859;DHT22;38721;53.098;6.596;2022-09-24T16:48:00;13.80;99.90
52859;DHT22;38721;53.098;6.596;2022-09-24T16:50:28;13.90;99.90
52859;DHT22;38721;53.098;6.596;2022-09-24T16:52:54;13.80;99.90
52859;DHT22;38721;53.098;6.596;2022-09-24T16:55:21;14.10;99.90
52859;DHT22;38721;53.098;6.596;2022-09-24T16:57:51;13.90;99.90
52859;DHT22;38721;53.098;6.596;2022-09-24T17:00:16;14.40;99.90
52859;DHT22;38721;53.098;6.596;2022-09-24T17:02:42;14.80;99.90
52859;DHT22;38721;53.098;6.596;2022-09-24T17:05:08;15.20;99.90
52859;DHT22;38721;53.098;6.596;2022-09-24T17:07:36;15.50;99.90
52859;DHT22;38721;53.098;6.596;2022-09-24T17:10:02;15.20;99.90
52859;DHT22;38721;53.098;6.596;2022-09-24T17:12:43;14.90;99.90
52859;DHT22;38721;53.098;6.596;2022-09-24T17:15:11;14.50;99.90
52859;DHT22;38721;53.098;6.596;2022-09-24T17:17:38;14.70;99.90
52859;DHT22;38721;53.098;6.596;2022-09-24T17:20:04;14.30;99.90
52859;DHT22;38721;53.098;6.596;2022-09-24T17:22:33;14.20;99.90
52859;DHT22;38721;53.098;6.596;2022-09-24T17:24:58;14.20;99.90
52859;DHT22;38721;53.098;6.596;2022-09-24T17:27:24;14.10;99.90
52859;DHT22;38721;53.098;6.596;2022-09-24T17:29:50;14.10;99.90
52859;DHT22;38721;53.098;6.596;2022-09-24T17:32:16;14.00;99.90
52859;DHT22;38721;53.098;6.596;2022-09-24T17:34:42;13.80;99.90
52859;DHT22;38721;53.098;6.596;2022-09-24T17:37:08;13.60;99.90
52859;DHT22;38721;53.098;6.596;2022-09-24T17:39:36;13.60;99.90
52859;DHT22;38721;53.098;6.596;2022-09-24T17:42:02;13.50;99.90
52859;DHT22;38721;53.098;6.596;2022-09-24T17:44:28;13.50;99.90
52859;DHT22;38721;53.098;6.596;2022-09-24T17:46:54;13.40;99.90
52859;DHT22;38721;53.098;6.596;2022-09-24T17:49:22;13.50;99.90
52859;DHT22;38721;53.098;6.596;2022-09-24T17:51:48;13.30;99.90
52859;DHT22;38721;53.098;6.596;2022-09-24T17:54:15;13.20;99.90
52859;DHT22;38721;53.098;6.596;2022-09-24T17:56:46;13.20;99.90
52859;DHT22;38721;53.098;6.596;2022-09-24T17:59:12;13.30;99.90
52859;DHT22;38721;53.098;6.596;2022-09-24T18:01:40;13.20;99.90
52859;DHT22;38721;53.098;6.596;2022-09-24T18:04:14;13.10;99.90